L'Atalante — FNCM — position and weather

sailwx.info

Track history (hours):
 
Tides and Currents Weather Stations Pressure Air Temp Water Temp Dewpoint Dewpoint Depression Visibility Wind Speed Wind Dir Waves Ship Positions

Oceanographic research ship L'Atalante (France)

Detailed information on ship capabilities available from University of Delaware's Ocean Information Center and ARCUS's ALIAS (Arctic Logistics Information and Support) project.

Last reported at 2020-Apr-15 11:58 UTC. Time now 2020-Aug-05 04:42 UTC.
Position N 48°23' W 004°29'.
Warning: this ship's position is months out of date.

Length 85 m; beam 16 m.

Type: Other ship. MMSI: 227222000.

Date/timePositionNaut miles runAvg speedWind from/ knotsBaromVisibWave heightAir tempDewpointWater temp
2020-Apr-15 11:58N 48°23' W 004°29'0 0.0
2020-Apr-15 11:28N 48°23' W 004°29'0 0.0
2020-Apr-15 10:28N 48°23' W 004°29'0 0.0
2020-Apr-15 09:58N 48°23' W 004°29'0 0.0
2020-Apr-15 09:28N 48°23' W 004°29'0 0.0
2020-Apr-15 08:28N 48°23' W 004°29'0 0.0
2020-Apr-15 07:58N 48°23' W 004°29'0 0.0
2020-Apr-15 05:28N 48°23' W 004°29'0 0.0
2020-Apr-15 02:58N 48°23' W 004°29'0 0.0
2020-Apr-15 01:58N 48°23' W 004°29'0 0.0
2020-Apr-15 00:28N 48°23' W 004°29'0 0.0
2020-Apr-14 22:28N 48°23' W 004°29'0 0.0
2020-Apr-14 20:58N 48°23' W 004°29'0 0.0
2020-Apr-14 18:58N 48°23' W 004°29'0 0.0
2020-Apr-14 18:28N 48°23' W 004°29'0 0.0
2020-Apr-14 15:58N 48°23' W 004°29'0 0.0
2020-Apr-14 14:58N 48°23' W 004°29'0 0.0
2020-Apr-14 12:28N 48°23' W 004°29'0 0.0
2020-Apr-14 11:58N 48°23' W 004°29'0 0.0
2020-Apr-14 08:58N 48°23' W 004°29'0 0.0
2020-Apr-14 08:30N 48°23' W 004°29'7 2.3
2020-Apr-14 05:30N 48°18' W 004°35'0 0.0
2020-Apr-14 05:00N 48°18' W 004°35'0 0.0
2020-Apr-14 04:30N 48°18' W 004°35'0 0.0
2020-Apr-14 01:30N 48°18' W 004°35'0 0.0
2020-Apr-14 01:00N 48°18' W 004°35'0 0.0
2020-Apr-14 00:00N 48°18' W 004°35'0 0.0
2020-Apr-13 23:30N 48°18' W 004°35'0 0.1
2020-Apr-13 23:00N 48°18' W 004°35'0 0.0
2020-Apr-13 18:30N 48°18' W 004°35'0 0.0
2020-Apr-13 16:31N 48°18' W 004°35'0 0.0
2020-Apr-13 13:00N 48°18' W 004°35'0 0.0
2020-Apr-13 12:30N 48°18' W 004°35'0 0.0
2020-Apr-13 10:00N 48°18' W 004°35'0 0.0
2020-Apr-13 09:30N 48°18' W 004°35'3 3.2
2020-Apr-13 08:30N 48°18' W 004°40'2710.6
2020-Apr-13 06:00N 48°06' W 005°15'  
2020-Apr-08 22:30N 38°14' W 024°16'1110.8
2020-Apr-08 21:29N 38°07' W 024°28'1111.0
2020-Apr-08 20:30N 38°01' W 024°39'510.7
2020-Apr-08 20:00N 37°58' W 024°44'510.7
2020-Apr-08 19:30N 37°55' W 024°50'1110.6
2020-Apr-08 18:30N 37°48' W 025°01'510.4
2020-Apr-08 18:00N 37°45' W 025°05'15 7.3
2020-Apr-08 16:00N 37°41' W 025°23'1010.5
2020-Apr-08 15:00N 37°43' W 025°36'12 5.0
2020-Apr-08 12:30N 37°37' W 025°50'9 9.1
2020-Apr-08 11:30N 37°31' W 025°59'10 9.8
2020-Apr-08 10:30N 37°25' W 026°09'10 9.7
2020-Apr-08 09:30N 37°19' W 026°19'510.8
2020-Apr-08 09:00N 37°16' W 026°25'  
Track history (hours):
 
Tides and Currents Weather Stations Pressure Air Temp Water Temp Dewpoint Dewpoint Depression Visibility Wind Speed Wind Dir Waves Ship Positions

Oceanographic research ship L'Atalante (France)

Detailed information on ship capabilities available from University of Delaware's Ocean Information Center and ARCUS's ALIAS (Arctic Logistics Information and Support) project.

Last reported at 2020-Apr-15 11:58 UTC. Time now 2020-Aug-05 04:42 UTC.
Position N 48°23' W 004°29'.
Warning: this ship's position is months out of date.

Length 85 m; beam 16 m.

Type: Other ship. MMSI: 227222000.

Date/timePositionNaut miles runAvg speedWind from/ knotsBaromVisibWave heightAir tempDewpointWater temp
2020-Apr-15 11:58N 48°23' W 004°29'0 0.0
2020-Apr-15 11:28N 48°23' W 004°29'0 0.0
2020-Apr-15 10:28N 48°23' W 004°29'0 0.0
2020-Apr-15 09:58N 48°23' W 004°29'0 0.0
2020-Apr-15 09:28N 48°23' W 004°29'0 0.0
2020-Apr-15 08:28N 48°23' W 004°29'0 0.0
2020-Apr-15 07:58N 48°23' W 004°29'0 0.0
2020-Apr-15 05:28N 48°23' W 004°29'0 0.0
2020-Apr-15 02:58N 48°23' W 004°29'0 0.0
2020-Apr-15 01:58N 48°23' W 004°29'0 0.0
2020-Apr-15 00:28N 48°23' W 004°29'0 0.0
2020-Apr-14 22:28N 48°23' W 004°29'0 0.0
2020-Apr-14 20:58N 48°23' W 004°29'0 0.0
2020-Apr-14 18:58N 48°23' W 004°29'0 0.0
2020-Apr-14 18:28N 48°23' W 004°29'0 0.0
2020-Apr-14 15:58N 48°23' W 004°29'0 0.0
2020-Apr-14 14:58N 48°23' W 004°29'0 0.0
2020-Apr-14 12:28N 48°23' W 004°29'0 0.0
2020-Apr-14 11:58N 48°23' W 004°29'0 0.0
2020-Apr-14 08:58N 48°23' W 004°29'0 0.0
2020-Apr-14 08:30N 48°23' W 004°29'7 2.3
2020-Apr-14 05:30N 48°18' W 004°35'0 0.0
2020-Apr-14 05:00N 48°18' W 004°35'0 0.0
2020-Apr-14 04:30N 48°18' W 004°35'0 0.0
2020-Apr-14 01:30N 48°18' W 004°35'0 0.0
2020-Apr-14 01:00N 48°18' W 004°35'0 0.0
2020-Apr-14 00:00N 48°18' W 004°35'0 0.0
2020-Apr-13 23:30N 48°18' W 004°35'0 0.1
2020-Apr-13 23:00N 48°18' W 004°35'0 0.0
2020-Apr-13 18:30N 48°18' W 004°35'0 0.0
2020-Apr-13 16:31N 48°18' W 004°35'0 0.0
2020-Apr-13 13:00N 48°18' W 004°35'0 0.0
2020-Apr-13 12:30N 48°18' W 004°35'0 0.0
2020-Apr-13 10:00N 48°18' W 004°35'0 0.0
2020-Apr-13 09:30N 48°18' W 004°35'3 3.2
2020-Apr-13 08:30N 48°18' W 004°40'2710.6
2020-Apr-13 06:00N 48°06' W 005°15'  
2020-Apr-08 22:30N 38°14' W 024°16'1110.8
2020-Apr-08 21:29N 38°07' W 024°28'1111.0
2020-Apr-08 20:30N 38°01' W 024°39'510.7
2020-Apr-08 20:00N 37°58' W 024°44'510.7
2020-Apr-08 19:30N 37°55' W 024°50'1110.6
2020-Apr-08 18:30N 37°48' W 025°01'510.4
2020-Apr-08 18:00N 37°45' W 025°05'15 7.3
2020-Apr-08 16:00N 37°41' W 025°23'1010.5
2020-Apr-08 15:00N 37°43' W 025°36'12 5.0
2020-Apr-08 12:30N 37°37' W 025°50'9 9.1
2020-Apr-08 11:30N 37°31' W 025°59'10 9.8
2020-Apr-08 10:30N 37°25' W 026°09'10 9.7
2020-Apr-08 09:30N 37°19' W 026°19'510.8
2020-Apr-08 09:00N 37°16' W 026°25'  

Dump ship's entire track history